Opasatika, Canada
Current Conditions -  °F | °C
As of 9:00 AM on Friday 28 Nov 2014 (Local Time) from CYYU Reporting Station
Few Clouds Few Clouds  
Wind Chill: -27°   Ceiling: Unl
Heat Index: -27°   Visibility: 15mi
Dew Point: -30°   Wind: 3mph
Humidity: 76%   Direction: 190°S
Pressure: 30.17"   Gusts: NA
Location:  49.53°N, 82.87°W
Report Text: CYYU 281400Z 19003KT 15SM FEW220 M27/M30 A3017 RMK CC1 SLP246
Loading
Personal Weather Stations






























Interactive Weather Map New forecast layout! Learn more

10-Day Weather Forecast

Advertisements
Track Severe Weather on mobile